Exam 3

1) In the following weather observation "METAR CYOW 241000Z 29018G27KT 10SM SCT023 BKN030 M10/M14 A2985 RMK SC4SC3 SLP118 =" , describe the observed winds. A. 290 ° Magnetic at 18 knots, gusts to 27 knots.

B. 290 ° True at 18 knots, gusts to 27 knots. C. 290 ° True at 18 knots, steady to 27 knots. D. 290 ° Magnetic at 18 knots, steady to 27 knots.

2) Which of the following requires a Special Flight Operations Certificate (SFOC)- RPAS? The operation of a small remotely piloted aircraft . . . . . A. in tethered flight. B. using LIDAR on the RPA. C. transporting payloads greater than 1 Kg. D. at night with an unlighted RPA at an unlighted site for take-off, launch, landing or recovery. 3) Referring to the map shown on the screen, choose the statement that describes that black dotted symbols connecting a point NE of Round Lake to the heliport of Havre St- Pierre.

A. The flight direction in magnetic degree. B. An air route for planes only. C. The flight direction in true degree. D. An air route for planes and helicopters.

4) Indicate how the pilot of a Cessna 150 registered CF-YKP must contact the control tower at March airport. A. March this is YKP. B. March Tower this is Cessna one five zero foxtrot yankee kilo papa. C. March Cessna one hundred fifty foxtrot yankee kilo papa. D. March tower Cessna foxtrot yankee kilo papa.

Made with FlippingBook - professional solution for displaying marketing and sales documents online